• Join FlightAware (Why Join?)
  • Login
  • US Flag 
Rudolph Flight #1: Arrived! 
08:43AM EST


 

Airport Tracker/Info


-or-


 

Live Flight TrackerFlight Track Log ✈ N900D ✈ 23-May-2013 ✈ KTEB - KVNY

Flight Track Log - Related Links

Times and Time Zones

All times are in EDT time to prevent confusion due to time zone crossing. See the N900D flight status page for this flight to view local times or setup timezone preferences in your user account.

Time Position Orientation Groundspeed Altitude Reporting Facility
EDT Latitude Longitude Course Direction KTS MPH feet Rate Location/Type
07:25PM 40.8428 -74.0756 205° Southwest 145 167 500  Level FlightAware ADS-B
07:26PM 40.8357 -74.0851 225° Southwest 145 167 1,000 1,920 Climbing FlightAware ADS-B
07:26PM 40.8281 -74.0995 235° Southwest 145 167 1,500 2,460 Climbing FlightAware ADS-B
07:27PM 40.8156 -74.1471 251° West 145 167 3,300 2,640 Climbing FlightAware ADS-B
07:27PM 40.8132 -74.1669 261° West 145 167 4,000 3,000 Climbing FlightAware ADS-B
07:27PM 40.8075 -74.1883 251° West 145 167 4,900 3,180 Climbing FlightAware ADS-B
07:27PM 40.7952 -74.2005 217° Southwest 145 167 5,700 2,760 Climbing FlightAware ADS-B
07:28PM 40.7806 -74.2113 209° Southwest 145 167 6,400 2,700 Climbing FlightAware ADS-B
07:28PM 40.7630 -74.2232 207° Southwest 145 167 7,200 2,460 Climbing FlightAware ADS-B
07:28PM 40.7477 -74.2338 208° Southwest 145 167 7,800 2,220 Climbing FlightAware ADS-B
07:28PM 40.7367 -74.2517 231° Southwest 8,400 2,400 Climbing FlightAware ADS-B
07:28PM 40.7359 -74.2546 250° West 145 167 8,400 1,980 Level FlightAware ADS-B
07:29PM 40.7360 -74.2793 270° West 250 288 9,000 2,220 Climbing FlightAware ADS-B
07:29PM 40.7396 -74.2894 295° West 145 167 9,300 1,980 Climbing FlightAware ADS-B
07:29PM 40.7471 -74.3007 311° West 284 327 9,500 1,560 Climbing FlightAware ADS-B
07:29PM 40.7582 -74.3100 328° Northwest 145 167 9,800 1,560 Climbing FlightAware ADS-B
07:29PM 40.7641 -74.3142 332° Northwest 287 330 9,900 1,380 Climbing FlightAware ADS-B
07:30PM 40.7968 -74.3362 333° Northwest 145 167 10,500 1,500 Climbing FlightAware ADS-B
07:30PM 40.8035 -74.3407 333° Northwest 305 351 10,700 2,100 Climbing FlightAware ADS-B
07:30PM 40.8387 -74.3650 332° Northwest 145 167 11,600 2,280 Climbing FlightAware ADS-B
07:30PM 40.8497 -74.3726 332° Northwest 333 383 12,000 2,460 Climbing FlightAware ADS-B
07:31PM 40.8868 -74.3989 332° Northwest 145 167 13,100 2,400 Climbing FlightAware ADS-B
07:31PM 40.8938 -74.4039 332° Northwest 342 394 13,300 2,520 Climbing FlightAware ADS-B
07:31PM 40.9379 -74.4445 325° Northwest 359 413 14,700 2,160 Climbing FlightAware ADS-B
07:32PM 40.9638 -74.4982 303° West 329 379 15,700 1,500 Climbing FlightAware ADS-B
07:32PM 40.9658 -74.5584 273° West 327 376 16,300 1,260 Climbing FlightAware ADS-B
07:33PM 40.9640 -74.5804 264° West 16,600 1,320 Climbing FlightAware ADS-B
07:33PM 40.9606 -74.6288 265° West 310 357 17,100 1,140 Climbing FlightAware ADS-B
07:33PM 40.9595 -74.6429 264° West 325 374 17,200 720 Climbing FlightAware ADS-B
07:34PM 40.9559 -74.6909 264° West 320 368 17,500 780 Climbing FlightAware ADS-B
07:34PM 40.9550 -74.7027 264° West 325 374 17,600 360 Climbing FlightAware ADS-B
07:34PM 40.9511 -74.7535 264° West 332 382 17,700 60 Climbing FlightAware ADS-B
07:35PM 40.9465 -74.8116 264° West 322 371 17,700  Level FlightAware ADS-B
07:35PM 40.9411 -74.8799 264° West 327 376 17,700  Level FlightAware ADS-B
07:36PM 40.9357 -74.9456 264° West 362 417 17,700 360 Level FlightAware ADS-B
07:36PM 40.9303 -75.0101 264° West 342 394 18,100 1,320 Climbing FlightAware ADS-B
07:37PM 40.9187 -75.0733 256° West 356 410 19,100 2,400 Climbing FlightAware ADS-B
07:37PM 40.9046 -75.1340 253° West 327 376 20,600 2,940 Climbing FlightAware ADS-B
07:38PM 40.8912 -75.1922 253° West 316 364 22,100 2,640 Climbing FlightAware ADS-B
07:38PM 40.8786 -75.2462 253° West 314 361 23,300 1,920 Climbing FlightAware ADS-B
07:39PM 40.8655 -75.3022 253° West 305 351 24,100 1,440 Climbing FlightAware ADS-B
07:39PM 40.8524 -75.3579 253° West 317 365 24,800 1,260 Climbing FlightAware ADS-B
07:40PM 40.8391 -75.4147 253° West 306 352 25,400 1,200 Climbing FlightAware ADS-B
07:40PM 40.8242 -75.4782 253° West 357 411 26,100 1,140 Climbing FlightAware ADS-B
07:41PM 40.8109 -75.5344 253° West 314 361 26,600 960 Climbing FlightAware ADS-B
07:41PM 40.7962 -75.5969 253° West 347 399 27,100 960 Climbing FlightAware ADS-B
07:42PM 40.7823 -75.6558 253° West 338 389 27,600 960 Climbing FlightAware ADS-B
07:42PM 40.7753 -75.7197 262° West 378 435 28,100 840 Climbing FlightAware ADS-B
07:43PM 40.7792 -75.7861 274° West 350 403 28,500 600 Climbing FlightAware ADS-B
07:43PM 40.7835 -75.8553 275° West 357 411 28,800 540 Climbing FlightAware ADS-B
07:44PM 40.7877 -75.9231 275° West 359 413 29,100 540 Climbing FlightAware ADS-B
07:44PM 40.7919 -75.9915 275° West 360 414 29,400 600 Climbing FlightAware ADS-B
07:45PM 40.7963 -76.0648 275° West 363 418 29,800 660 Climbing FlightAware ADS-B
07:45PM 40.8002 -76.1317 274° West 352 405 30,100 540 Climbing FlightAware ADS-B
07:46PM 40.8045 -76.2034 275° West 369 425 30,400 540 Climbing FlightAware ADS-B
07:47PM 40.8085 -76.2734 274° West 354 407 30,700 660 Climbing FlightAware ADS-B
07:47PM 40.8127 -76.3461 274° West 368 423 31,100 660 Climbing FlightAware ADS-B
07:48PM 40.8166 -76.4148 274° West 362 417 31,400 600 Climbing FlightAware ADS-B
07:48PM 40.8211 -76.4938 274° West 390 449 31,800 720 Climbing FlightAware ADS-B
07:49PM 40.8252 -76.5690 274° West 383 441 32,200 840 Climbing FlightAware ADS-B
07:49PM 40.8291 -76.6395 274° West 385 443 32,700 900 Climbing FlightAware ADS-B
07:50PM 40.8332 -76.7168 274° West 385 443 33,200 780 Climbing FlightAware ADS-B
07:50PM 40.8372 -76.7918 274° West 397 457 33,600 720 Climbing FlightAware ADS-B
07:51PM 40.8409 -76.8627 274° West 372 428 34,000 540 Climbing FlightAware ADS-B
07:51PM 40.8451 -76.9417 274° West 392 451 34,200 480 Climbing FlightAware ADS-B
07:52PM 40.8480 -77.0010 274° West 34,500 660 Climbing FlightAware
07:52PM 40.8494 -77.0278 274° West 391 450 34,600 600 Climbing FlightAware ADS-B
07:52PM 40.8535 -77.1070 274° West 416 479 34,900 480 Climbing FlightAware ADS-B
07:53PM 40.8590 -77.2100 274° West 35,300 420 Climbing FlightAware
07:53PM 40.8608 -77.2552 273° West 389 448 35,400 420 Climbing FlightAware ADS-B
07:54PM 40.8663 -77.3706 274° West 393 452 35,800 480 Climbing FlightAware ADS-B
07:55PM 40.8701 -77.4503 274° West 397 457 36,100 600 Climbing FlightAware ADS-B
07:55PM 40.8737 -77.5275 274° West 394 453 36,500 360 Climbing FlightAware ADS-B
07:56PM 40.8770 -77.6070 273° West 36,800 240 Climbing FlightAware
07:56PM 40.8811 -77.6889 274° West 37,000 120 Climbing FlightAware ADS-B
07:57PM 40.8854 -77.7885 273° West 389 448 37,000 -60 Level FlightAware ADS-B
07:58PM 40.8900 -77.8970 273° West 37,000 -60 Level FlightAware
07:59PM 40.8940 -77.9950 273° West 37,000 -60 Level FlightAware
08:00PM 40.9000 -78.1220 274° West 37,000 -60 Level FlightAware
08:00PM 40.9040 -78.2290 273° West 37,000 -60 Level FlightAware
08:01PM 40.9080 -78.3170 273° West 37,000 -60 Level FlightAware
08:02PM 40.9120 -78.4300 273° West 37,000 -60 Level FlightAware
08:02PM 40.9160 -78.5410 273° West 37,000 -60 Level FlightAware
08:03PM 40.9200 -78.6560 273° West 37,000 -60 Level FlightAware
08:04PM 40.9240 -78.7610 273° West 37,000 -60 Level FlightAware
08:04PM 40.9280 -78.8530 273° West 37,000 -60 Level FlightAware
08:05PM 40.9320 -78.9790 272° West 36,900 -60 Descending FlightAware
08:06PM 40.9350 -79.0770 272° West 36,900 -60 Level FlightAware
08:07PM 40.9390 -79.1960 273° West 36,900 -60 Level FlightAware
08:07PM 40.9420 -79.2920 272° West 36,900 -60 Level FlightAware
08:08PM 40.9450 -79.3960 272° West 36,900 -60 Level FlightAware
08:09PM 40.9490 -79.5130 273° West 36,900 -60 Level FlightAware
08:09PM 40.9520 -79.6190 272° West 36,900 -60 Level FlightAware
08:10PM 40.9550 -79.7230 272° West 36,900 -60 Level FlightAware
08:11PM 40.9580 -79.8200 272° West 36,900 -60 Level FlightAware
08:11PM 40.9610 -79.9510 272° West 36,800 -60 Descending FlightAware
08:12PM 40.9640 -80.0690 272° West 36,800 -60 Level FlightAware
08:13PM 40.9670 -80.1720 272° West 36,800 -60 Level FlightAware
08:14PM 40.9690 -80.2900 271° West 36,800 -60 Level FlightAware
08:14PM 40.9710 -80.3790 272° West 36,800 -60 Level FlightAware
08:15PM 40.9740 -80.4930 272° West 36,800 -60 Level FlightAware
08:16PM 40.9760 -80.6020 271° West 36,800 -60 Level FlightAware
08:16PM 40.9790 -80.7220 272° West 36,800 -60 Level FlightAware
08:17PM 40.9810 -80.8320 271° West 36,800 -60 Level FlightAware
08:19PM 40.9860 -81.1630 271° West 36,700 -60 Descending FlightAware
08:20PM 40.9880 -81.2550 272° West 36,700 -60 Level FlightAware
08:21PM 40.9900 -81.3850 271° West 36,700 -60 Level FlightAware
08:21PM 40.9910 -81.4590 271° West 36,700 -60 Level FlightAware
08:22PM 40.9920 -81.5990 271° West 36,700 -60 Level FlightAware
08:23PM 40.9930 -81.7010 271° West 36,700 -60 Level FlightAware
08:24PM 40.9950 -81.8450 271° West 36,700 -60 Level FlightAware
08:24PM 40.9960 -81.9480 271° West 36,700 -60 Level FlightAware
08:25PM 40.9970 -82.0590 271° West 36,700 -60 Level FlightAware
08:27PM 40.9990 -82.3250 271° West 36,600 -60 Descending FlightAware
08:27PM 40.9990 -82.4150 270° West 36,600 -60 Level FlightAware
08:28PM 41.0000 -82.5330 271° West 36,600 -60 Level FlightAware
08:30PM 40.9970 -82.8110 269° West 36,600 -60 Level FlightAware
08:31PM 40.9900 -83.0250 268° West 36,600 -60 Level FlightAware
08:34PM 40.9770 -83.4320 268° West 36,600 -60 Level FlightAware
08:34PM 40.9740 -83.5280 268° West 36,600 -60 Level FlightAware
08:39PM 40.9470 -84.2250 267° West 36,600 -60 Level FlightAware
08:39PM 40.9430 -84.3290 267° West 36,600 -60 Level FlightAware
08:40PM 39.0890 -88.0000 238° Southwest -120 Descending FlightAware
08:43PM 38.7080 -88.0000 180° South 3,960 Level FlightAware
08:44PM 40.9090 -85.0770 45° Northeast 36,600 6,060 Climbing FlightAware
08:44PM 40.9050 -85.1630 267° West 36,600 -120 Level FlightAware
08:45PM 40.8990 -85.2670 266° West 36,600 -180 Level FlightAware
08:46PM 38.5170 -88.0000 222° Southwest -180 Descending FlightAware
08:49PM 40.8675 -85.8631 222° Southwest 426 490 36,000 420 Climbing Chicago Center
08:54PM 40.8190 -86.6870 222° Southwest 36,600  Climbing FlightAware
08:55PM 40.8120 -86.7960 265° West 36,600  Level FlightAware
08:56PM 40.8050 -86.9030 265° West 36,600  Level FlightAware
08:56PM 40.7970 -87.0150 265° West 36,600  Level FlightAware
08:57PM 40.7910 -87.1070 265° West 36,600  Level FlightAware
08:58PM 40.7840 -87.2140 265° West 36,600  Level FlightAware
09:00PM 40.7600 -87.5600 265° West 36,700  Climbing FlightAware
09:00PM 40.7560 -87.6260 265° West 36,700  Level FlightAware
09:01PM 40.7480 -87.7300 264° West 36,700  Level FlightAware
09:02PM 40.7410 -87.8290 265° West 36,700  Level FlightAware
09:03PM 40.7320 -87.9460 264° West 36,700  Level FlightAware
09:03PM 40.7260 -88.0330 265° West 36,700  Level FlightAware
09:04PM 40.7170 -88.1440 264° West 36,700  Level FlightAware
09:05PM 40.7080 -88.2680 265° West 36,700  Level FlightAware
09:05PM 40.7000 -88.3670 264° West 36,700  Level FlightAware
09:06PM 40.6860 -88.5400 264° West 36,700  Level FlightAware
09:07PM 40.6800 -88.6210 264° West 36,700  Level FlightAware
09:08PM 40.6700 -88.7390 264° West 36,700  Level FlightAware
09:09PM 40.6590 -88.8750 264° West 36,800  Climbing FlightAware
09:10PM 40.6490 -89.0010 264° West 36,800  Level FlightAware
09:10PM 40.6400 -89.1090 264° West 36,800  Level FlightAware
09:11PM 40.6320 -89.1990 263° West 36,800  Level FlightAware
09:11PM 40.6240 -89.2870 263° West 36,800  Level FlightAware
09:13PM 40.6100 -89.4520 264° West 36,800  Level FlightAware
09:15PM 40.5780 -89.8070 263° West 36,800  Level FlightAware
09:16PM 40.5630 -89.9730 263° West 36,800  Level FlightAware
09:17PM 40.5530 -90.0770 263° West 36,800  Level FlightAware
09:17PM 40.5430 -90.1870 263° West 36,800  Level FlightAware
09:19PM 40.5260 -90.3650 263° West 37,400  Climbing FlightAware
09:20PM 40.5130 -90.5020 263° West 38,000  Climbing FlightAware
09:22PM 40.4760 -90.8710 263° West 38,900  Climbing FlightAware
09:23PM 40.4570 -91.0570 262° West 38,900  Level FlightAware
09:24PM 40.4480 -91.1520 263° West 38,900  Level FlightAware
09:26PM 40.4200 -91.4110 262° West 38,900  Level FlightAware
09:28PM 40.3830 -91.7650 262° West 38,900  Level FlightAware
09:31PM 40.3380 -92.1700 262° West 39,000  Climbing FlightAware
09:31PM 40.3270 -92.2660 261° West 39,000  Level FlightAware
09:33PM 40.2930 -92.5680 262° West 39,000  Level FlightAware
09:36PM 40.2560 -92.8860 261° West 39,100  Climbing FlightAware
09:37PM 40.2270 -93.1260 261° West 39,100  Level FlightAware
09:38PM 40.2120 -93.2510 261° West 39,100  Level FlightAware
09:39PM 40.1990 -93.3610 261° West 39,100  Level FlightAware
09:41PM 40.1510 -93.7470 261° West 39,100  Level FlightAware
09:42PM 40.1330 -93.8870 260° West 39,100  Level FlightAware
09:43PM 40.1110 -94.0570 260° West 39,100  Level FlightAware
09:45PM 40.0720 -94.3600 261° West 39,200  Climbing FlightAware
09:47PM 40.0400 -94.6000 260° West 39,200  Level FlightAware
09:48PM 38.1360 -93.9130 164° South  Descending FlightAware
09:51PM 38.3260 -93.9130 360° North 1,440 Level FlightAware
09:57PM 38.5170 -96.0000 277° West 1,620 Level FlightAware
09:59PM 39.7850 -96.4070 346° North 39,300 2,160 Climbing FlightAware
09:59PM 39.7770 -96.4570 258° West 39,300  Level FlightAware
10:02PM 39.9270 -95.4240 79° East 39,300  Level FlightAware
10:02PM 38.5170 -96.0000 198° South 42,900  Climbing FlightAware
10:03PM 39.6870 -97.0490 326° Northwest 39,300 -240 Descending FlightAware
10:04PM 39.8420 -96.0210 79° East 39,300  Level FlightAware
10:05PM 39.7870 -96.3890 259° West 39,300  Level FlightAware
10:06PM 39.7390 -96.7110 259° West 39,300  Level FlightAware
10:07PM 39.6010 -97.5900 259° West 39,300  Level FlightAware
10:08PM 39.5700 -97.7830 258° West 39,300  Level FlightAware
10:09PM 39.5520 -97.8910 258° West 39,300 60 Level FlightAware
10:11PM 39.5130 -98.1270 258° West 39,300 60 Level FlightAware
10:11PM 39.4930 -98.2490 258° West 39,400 60 Climbing FlightAware
10:12PM 39.4750 -98.3570 258° West 39,400 60 Level FlightAware
10:13PM 39.4470 -98.5190 257° West 39,800 120 Climbing FlightAware
10:14PM 39.4290 -98.6290 258° West 40,300  Climbing FlightAware
10:15PM 39.4010 -98.7880 257° West 41,000 -360 Climbing FlightAware
10:15PM 39.3947 -98.8258 257° West 423 487 39,800 -780 Descending Denver Center
10:16PM 39.3656 -98.9944 257° West 418 481 40,000 60 Climbing Denver Center
10:17PM 39.3497 -99.0858 257° West 420 483 40,000  Level Kansas City Center
10:18PM 39.3247 -99.2342 258° West 423 487 40,000  Level Kansas City Center
10:19PM 39.2967 -99.3839 256° West 428 493 40,000  Level Kansas City Center
10:20PM 39.2858 -99.4439 257° West 423 487 40,000  Level Denver Center
10:21PM 39.2564 -99.6078 257° West 421 484 40,000  Level Denver Center
10:22PM 39.2317 -99.7481 257° West 419 482 40,000  Level Denver Center
10:23PM 39.2050 -99.8878 256° West 417 480 40,000  Level Denver Center
10:24PM 39.1764 -100.0469 257° West 414 476 40,000  Level Denver Center
10:25PM 39.1506 -100.1861 257° West 415 478 40,000  Level Denver Center
10:26PM 39.1197 -100.3478 256° West 416 479 40,000 180 Level Denver Center
10:32PM 38.9514 -101.2300 256° West 41,400 180 Climbing FlightAware ADS-B
10:32PM 38.9362 -101.3070 256° West 390 449 41,400  Level FlightAware ADS-B
10:33PM 38.9191 -101.3940 256° West 416 479 41,400  Level FlightAware ADS-B
10:34PM 38.8885 -101.5480 256° West 425 489 41,400  Level FlightAware ADS-B
10:34PM 38.8731 -101.6250 256° West 418 481 41,400  Level FlightAware ADS-B
10:35PM 38.8581 -101.7000 256° West 414 476 41,400  Level FlightAware ADS-B
10:36PM 38.8430 -101.7750 256° West 416 479 41,400  Level FlightAware ADS-B
10:36PM 38.8274 -101.8530 256° West 418 481 41,400  Level FlightAware ADS-B
10:37PM 38.8126 -101.9260 255° West 420 483 41,400  Level FlightAware ADS-B
10:37PM 38.7974 -102.0010 255° West 436 502 41,400  Level FlightAware ADS-B
10:38PM 38.7786 -102.0930 255° West 418 481 41,400  Level FlightAware ADS-B
10:38PM 38.7633 -102.1680 255° West 431 496 41,400 60 Level FlightAware ADS-B
10:39PM 38.7479 -102.2430 255° West 426 490 41,500  Climbing FlightAware ADS-B
10:39PM 38.7320 -102.3200 255° West 406 467 41,400 -120 Descending FlightAware ADS-B
10:40PM 38.7161 -102.3960 255° West 400 460 41,400  Level FlightAware ADS-B
10:40PM 38.7007 -102.4700 255° West 419 482 41,400  Level FlightAware ADS-B
10:41PM 38.6859 -102.5410 255° West 399 459 41,400  Level FlightAware ADS-B
10:41PM 38.6700 -102.6170 255° West 410 472 41,400  Level FlightAware ADS-B
10:42PM 38.6552 -102.6880 255° West 396 456 41,400  Level FlightAware ADS-B
10:42PM 38.6398 -102.7610 255° West 429 494 41,400 60 Level FlightAware ADS-B
10:43PM 38.6249 -102.8310 255° West 364 419 41,500 60 Climbing FlightAware ADS-B
10:43PM 38.6095 -102.9040 255° West 416 479 41,500  Level FlightAware ADS-B
10:44PM 38.5934 -102.9790 255° West 448 516 41,500  Level FlightAware ADS-B
10:44PM 38.5779 -103.0520 255° West 396 456 41,500  Level FlightAware ADS-B
10:45PM 38.5622 -103.1250 255° West 381 438 41,500  Level FlightAware ADS-B
10:45PM 38.5460 -103.2010 255° West 413 475 41,500 -120 Level FlightAware ADS-B
10:46PM 38.5308 -103.2710 255° West 394 453 41,400 -120 Descending FlightAware ADS-B
10:47PM 38.5152 -103.3430 255° West 397 457 41,400  Level FlightAware ADS-B
10:47PM 38.4995 -103.4160 255° West 417 480 41,400  Level FlightAware ADS-B
10:48PM 38.4843 -103.4850 254° West 386 444 41,400  Level FlightAware ADS-B
10:48PM 38.4687 -103.5570 255° West 401 461 41,400  Level FlightAware ADS-B
10:49PM 38.4526 -103.6300 254° West 411 473 41,400  Level FlightAware ADS-B
10:49PM 38.4374 -103.6990 254° West 391 450 41,400  Level FlightAware ADS-B
10:50PM 38.4222 -103.7680 254° West 401 461 41,400 60 Level FlightAware ADS-B
10:50PM 38.4065 -103.8390 254° West 433 498 41,500  Climbing FlightAware ADS-B
10:51PM 38.3913 -103.9080 254° West 401 461 41,400  Descending FlightAware ADS-B
10:51PM 38.3760 -103.9760 254° West 420 483 41,500 60 Climbing FlightAware ADS-B
10:52PM 38.3601 -104.0470 254° West 386 444 41,500  Level FlightAware ADS-B
10:52PM 38.3452 -104.1140 254° West 375 432 41,500  Level FlightAware ADS-B
10:53PM 38.3293 -104.1850 254° West 406 467 41,500  Level FlightAware ADS-B
10:53PM 38.3132 -104.2570 254° West 438 504 41,500  Level FlightAware ADS-B
10:54PM 38.2959 -104.3330 254° West 397 457 41,500  Level FlightAware ADS-B
10:54PM 38.2748 -104.4260 254° West 424 488 41,500  Level FlightAware ADS-B
10:55PM 38.2557 -104.5100 254° West 398 458 41,500  Level FlightAware ADS-B
10:55PM 38.2391 -104.5830 254° West 406 467 41,500  Level FlightAware ADS-B
10:56PM 38.2224 -104.6560 254° West 391 450 41,500  Level FlightAware ADS-B
10:57PM 38.2034 -104.7390 254° West 412 474 41,500  Level FlightAware ADS-B
10:57PM 38.1864 -104.8130 254° West 401 461 41,500  Level FlightAware ADS-B
10:58PM 38.1683 -104.8910 254° West 461 531 41,500  Level FlightAware ADS-B
10:58PM 38.1517 -104.9630 254° West 426 490 41,500  Level FlightAware ADS-B
10:59PM 38.1339 -105.0390 253° West 416 479 41,500  Level FlightAware ADS-B
10:59PM 38.1166 -105.1130 253° West 433 498 41,500  Level FlightAware ADS-B
11:00PM 38.0992 -105.1870 253° West 421 484 41,500  Level FlightAware ADS-B
11:00PM 38.0824 -105.2590 254° West 422 486 41,500  Level FlightAware ADS-B
11:01PM 38.0655 -105.3310 253° West 464 534 41,500  Level FlightAware ADS-B
11:01PM 38.0474 -105.4080 253° West 419 482 41,500  Level FlightAware ADS-B
11:02PM 38.0303 -105.4800 253° West 403 464 41,500  Level FlightAware ADS-B
11:02PM 38.0121 -105.5560 253° West 421 484 41,500  Level FlightAware ADS-B
11:03PM 37.9949 -105.6290 253° West 403 464 41,500 -120 Level FlightAware ADS-B
11:03PM 37.9776 -105.7010 253° West 424 488 41,400 -120 Descending FlightAware ADS-B
11:04PM 37.9601 -105.7740 253° West 399 459 41,400 60 Level FlightAware ADS-B
11:04PM 37.9422 -105.8480 253° West 407 468 41,500  Climbing FlightAware ADS-B
11:05PM 37.9259 -105.9160 253° West 389 448 41,400 -120 Descending FlightAware ADS-B
11:05PM 37.9073 -105.9930 253° West 407 468 41,400  Level FlightAware ADS-B
11:06PM 37.8904 -106.0630 253° West 413 475 41,400  Level FlightAware ADS-B
11:06PM 37.8738 -106.1310 253° West 407 468 41,400  Level FlightAware ADS-B
11:07PM 37.8567 -106.2010 253° West 403 464 41,400  Level FlightAware ADS-B
11:07PM 37.8401 -106.2690 253° West 418 481 41,400  Level FlightAware ADS-B
11:08PM 37.8228 -106.3400 253° West 422 486 41,400  Level FlightAware ADS-B
11:08PM 37.8059 -106.4080 253° West 387 445 41,400  Level FlightAware ADS-B
11:09PM 37.7889 -106.4770 253° West 408 470 41,400  Level FlightAware ADS-B
11:09PM 37.7712 -106.5490 253° West 440 506 41,400  Level FlightAware ADS-B
11:10PM 37.7527 -106.6230 252° West 400 460 41,400  Level FlightAware ADS-B
11:10PM 37.7328 -106.7030 253° West 423 487 41,400  Level FlightAware ADS-B
11:11PM 37.7092 -106.7980 253° West 416 479 41,400 -960 Level FlightAware ADS-B
11:12PM 37.6803 -106.9092 253° West 426 490 40,000 -780 Descending Denver Center
11:13PM 37.6467 -107.0456 253° West 425 489 40,000  Level Denver Center
11:14PM 37.6058 -107.2067 252° West 431 496 40,000  Level Denver Center
11:15PM 37.5700 -107.3436 252° West 430 495 40,000  Level Denver Center
11:16PM 37.5356 -107.4781 252° West 424 488 40,000  Level Denver Center
11:17PM 37.4956 -107.6367 252° West 424 488 40,000  Level Denver Center
11:18PM 37.4600 -107.7719 252° West 423 487 40,000  Level Denver Center
11:19PM 37.4200 -107.9269 252° West 417 480 40,000  Level Denver Center
11:20PM 37.3850 -108.0606 252° West 419 482 40,000  Level Denver Center
11:21PM 37.3503 -108.1914 252° West 415 478 40,000  Level Denver Center
11:22PM 37.3097 -108.3456 252° West 418 481 40,000  Level Denver Center
11:23PM 37.2744 -108.4783 252° West 417 480 40,000  Level Denver Center
11:24PM 37.2331 -108.6264 251° West 408 470 40,000  Level Denver Center
11:25PM 37.1992 -108.7586 252° West 413 475 40,000  Level Denver Center
11:26PM 37.1575 -108.9106 251° West 413 475 40,000  Level Denver Center
11:27PM 37.1214 -109.0408 251° West 414 476 40,100  Climbing Denver Center
11:28PM 37.0861 -109.1703 251° West 412 474 40,000 -60 Descending Denver Center
11:29PM 37.0458 -109.3189 251° West 408 470 40,000  Level Denver Center
11:30PM 37.0100 -109.4475 251° West 409 471 40,000 -240 Level Denver Center
11:37PM 36.7740 -110.2830 251° West 41,300 -300 Climbing FlightAware
11:37PM 36.7380 -110.4090 250° West 41,300 -360 Level FlightAware
11:38PM 36.7290 -110.4400 250° West 41,400 -360 Climbing FlightAware
11:39PM 36.6960 -110.5560 250° West 41,400 -360 Level FlightAware
11:39PM 36.6710 -110.6400 250° West 41,400 -360 Level FlightAware
11:40PM 36.6460 -110.7280 251° West 41,300 -360 Descending FlightAware
11:41PM 37.5640 -109.5650 45° Northeast 628 723 -360 Descending FlightAware
11:41PM 36.5850 -110.9350 229° Southwest 41,300 720 Climbing FlightAware
11:42PM 36.5750 -110.9700 250° West 41,300 -360 Level FlightAware
11:42PM 36.5530 -111.0440 250° West 41,300 -360 Level FlightAware
11:43PM 36.5260 -111.1370 250° West 41,300 -360 Level FlightAware
11:44PM 36.4990 -111.2260 249° West 41,300 -420 Level FlightAware
11:44PM 36.4700 -111.3250 250° West 41,300 -420 Level FlightAware
11:45PM 36.4420 -111.4200 250° West 41,300 -420 Level FlightAware
11:46PM 37.1820 -109.5650 63° Northeast -420 Descending FlightAware
11:47PM 36.3790 -111.6300 245° Southwest 41,300 840 Climbing FlightAware
11:47PM 36.3580 -111.6980 249° West 41,300 -420 Level FlightAware
11:50PM 36.2510 -112.0510 249° West 41,300 -420 Level FlightAware
11:51PM 36.2290 -112.1220 249° West 41,300 -480 Level FlightAware
11:52PM 36.1570 -112.3580 249° West 41,300 -480 Level FlightAware
11:53PM 36.1410 -112.4090 249° West 41,300 -540 Level FlightAware
11:54PM 37.7540 -109.5650 54° Northeast -540 Descending FlightAware
11:57PM 35.9600 -112.9870 238° Southwest 41,300 1,080 Climbing FlightAware
11:58PM 35.9120 -113.1390 249° West 41,300 -660 Level FlightAware
11:59PM 35.8810 -113.2380 249° West 41,300 -660 Level FlightAware
12:01AM 37.5640 -109.5650 59° Northeast -720 Descending FlightAware
12:01AM 37.5640 -109.5650 59° Northeast 1,500 Level FlightAware
12:02AM 35.7870 -113.5300 242° Southwest 41,300 1,500 Climbing FlightAware
12:02AM 35.7870 -113.5300 242° Southwest 41,300 -780 Level FlightAware
12:02AM 35.7530 -113.6360 248° West 41,300 -780 Level FlightAware
12:02AM 35.7530 -113.6360 248° West 41,300 -840 Level FlightAware
12:04AM 35.7100 -113.7680 248° West 41,300 -840 Level FlightAware
12:04AM 35.7100 -113.7680 248° West 41,300 -900 Level FlightAware
12:04AM 35.6640 -113.9110 248° West 41,300 -900 Level FlightAware
12:06AM 35.6140 -114.0620 248° West 41,300 -900 Level FlightAware
12:07AM 35.5620 -114.2220 248° West 41,200 -1,020 Descending FlightAware
12:08AM 35.5360 -114.3000 248° West 41,200 -1,080 Level FlightAware
12:08AM 35.5030 -114.4000 248° West 41,200 -1,140 Level FlightAware
12:09AM 35.4770 -114.4790 248° West 40,800 -1,260 Descending FlightAware
12:11AM 35.3930 -114.7300 248° West 38,300 -1,260 Descending FlightAware
12:11AM 35.3710 -114.7970 248° West 37,400 -1,260 Descending FlightAware
12:12AM 35.3460 -114.8700 247° West 36,300 -1,200 Descending FlightAware
12:13AM 35.3180 -114.9540 248° West 35,300 -1,200 Descending FlightAware
12:13AM 35.2790 -115.0690 247° West 35,300 -1,140 Level FlightAware
12:14AM 35.2440 -115.1720 247° West 34,800 -1,320 Descending FlightAware
12:15AM 35.2040 -115.2900 247° West 33,800 -1,440 Descending FlightAware
12:16AM 35.1760 -115.3700 247° West 33,100 -1,440 Descending FlightAware
12:16AM 35.1390 -115.4800 248° West 32,200 -1,500 Descending FlightAware
12:17AM 35.1090 -115.5660 247° West 31,500 -1,560 Descending FlightAware
12:18AM 35.0660 -115.6910 247° West 30,500 -1,740 Descending FlightAware
12:19AM 35.0194 -115.8269 247° West 423 487 28,100 -1,740 Descending Los Angeles Center
12:20AM 34.9742 -115.9569 247° West 419 482 26,900 -1,200 Descending Los Angeles Center
12:26AM 34.7750 -116.6830 247° West 20,800 -1,080 Descending FlightAware
12:27AM 34.7680 -116.7540 263° West 20,800  Level FlightAware
12:28AM 34.7440 -116.9950 263° West 20,800  Level FlightAware
12:29AM 34.7300 -117.1300 263° West 20,800  Level FlightAware
12:30AM 34.7200 -117.2320 263° West 20,800  Level FlightAware
12:31AM 34.7080 -117.3480 263° West 20,800  Level FlightAware
12:31AM 34.7020 -117.3990 262° West 20,700 -240 Descending FlightAware
12:32AM 34.6950 -117.4700 263° West 19,800 -1,560 Descending FlightAware
12:33AM 34.6800 -117.6130 263° West 17,800 -1,860 Descending FlightAware
12:34AM 34.6690 -117.7100 262° West 16,500 -1,740 Descending FlightAware
12:35AM 34.6570 -117.8270 263° West 14,800 -1,860 Descending FlightAware
12:38AM 34.6060 -118.1760 260° West 10,500 -1,320 Descending FlightAware
12:39AM 34.5810 -118.2890 255° West 9,000 -1,200 Descending FlightAware
12:40AM 34.5640 -118.3640 255° West 8,200 -1,080 Descending FlightAware
12:40AM 34.5570 -118.3990 256° West 8,200  Level FlightAware
12:41AM 34.5510 -118.4240 254° West 8,200  Level FlightAware
12:41AM 34.5440 -118.4540 254° West 8,200  Level FlightAware
12:42AM 34.5370 -118.4860 255° West 8,200  Level FlightAware
12:42AM 34.5290 -118.5050 243° Southwest 8,200  Level FlightAware
12:43AM 34.4840 -118.5280 203° Southwest 8,200  Level FlightAware
12:43AM 34.4630 -118.5370 199° South 8,000 -480 Descending FlightAware
12:44AM 34.4440 -118.5380 182° South 7,400 -1,800 Descending FlightAware
12:45AM 34.3950 -118.5280 170° South 6,100 -1,320 Descending FlightAware
12:45AM 34.3640 -118.5210 169° South 4,700 -2,400 Descending FlightAware
12:46AM 34.3440 -118.5170 171° South 3,800 -2,160 Descending FlightAware
12:46AM 34.3220 -118.5130 171° South 3,400 -840 Descending FlightAware
12:47AM 34.3020 -118.5080 168° South 3,400  Level FlightAware
12:47AM 34.2880 -118.5030 164° South 3,200 -480 Descending FlightAware
12:47AM 34.2740 -118.4980 164° South 2,900 -720 Descending FlightAware
12:48AM 34.2640 -118.4960 171° South 2,600 -1,200 Descending FlightAware
12:48AM 34.2440 -118.4940 175° South 1,900 -1,440 Descending FlightAware
12:49AM 34.2260 -118.4920 175° South 1,300 -1,200 Descending FlightAware
12:49AM 34.2170 -118.4910 175° South 1,000 -900 Descending FlightAware
12:57AM 34.2098 -118.4900 180° South  Level Estimated